createdAt,value
2022-09-28T00:00:47.801Z,8.07
2022-09-28T00:03:14.585Z,9.20
2022-09-28T00:05:41.329Z,8.40
2022-09-28T00:08:08.051Z,11.63
2022-09-28T00:10:34.817Z,9.07
2022-09-28T00:13:01.861Z,9.10
2022-09-28T00:15:29.224Z,9.77
2022-09-28T00:17:56.040Z,10.67
2022-09-28T00:20:22.818Z,7.70
2022-09-28T00:22:49.681Z,12.87
2022-09-28T00:25:16.990Z,11.33
2022-09-28T00:27:49.225Z,11.90
2022-09-28T00:30:16.455Z,10.87
2022-09-28T00:32:43.197Z,10.23
2022-09-28T00:35:10.783Z,9.27
2022-09-28T00:37:37.542Z,8.23
2022-09-28T00:40:04.782Z,7.83
2022-09-28T00:42:31.502Z,13.33
2022-09-28T00:44:59.567Z,9.60
2022-09-28T00:47:51.916Z,8.43
2022-09-28T00:53:30.391Z,10.53
2022-09-28T00:56:07.141Z,9.77
2022-09-28T00:58:37.262Z,10.83
2022-09-28T01:01:04.567Z,12.80
2022-09-28T01:03:32.672Z,10.43
2022-09-28T01:06:02.907Z,9.23
2022-09-28T01:08:32.634Z,7.87
2022-09-28T01:11:00.099Z,9.80
2022-09-28T01:13:28.045Z,12.87
2022-09-28T01:16:21.843Z,10.67
2022-09-28T01:18:51.339Z,12.47
2022-09-28T01:21:23.332Z,7.27
2022-09-28T01:24:09.590Z,10.33
2022-09-28T01:27:01.374Z,8.57
2022-09-28T01:29:49.395Z,8.53
2022-09-28T01:32:55.299Z,8.53
2022-09-28T01:35:54.004Z,8.80
2022-09-28T01:38:31.182Z,7.87
2022-09-28T01:40:59.668Z,11.43
2022-09-28T01:43:29.543Z,14.53
2022-09-28T01:46:06.322Z,8.77
2022-09-28T01:48:39.998Z,10.23
2022-09-28T01:51:16.299Z,10.07
2022-09-28T01:53:48.593Z,9.33
2022-09-28T01:56:24.987Z,10.33
2022-09-28T01:59:22.008Z,9.73
2022-09-28T02:02:12.531Z,9.30
2022-09-28T02:04:44.016Z,10.53
2022-09-28T02:07:12.945Z,7.67
2022-09-28T02:09:45.996Z,11.27
2022-09-28T02:12:30.171Z,10.57
2022-09-28T02:15:05.148Z,11.47
2022-09-28T02:17:31.957Z,8.73
2022-09-28T02:19:58.837Z,11.97
2022-09-28T02:22:31.687Z,11.40
2022-09-28T02:25:19.016Z,12.80
2022-09-28T02:28:06.757Z,11.23
2022-09-28T02:30:37.296Z,14.10
2022-09-28T02:33:19.875Z,8.93
2022-09-28T02:35:46.931Z,9.63
2022-09-28T02:38:14.933Z,13.40
2022-09-28T02:40:48.250Z,12.73
2022-09-28T02:43:23.464Z,12.80
2022-09-28T02:46:09.187Z,10.63
2022-09-28T02:49:10.467Z,17.10
2022-09-28T02:52:06.195Z,11.43
2022-09-28T02:55:07.143Z,13.70
2022-09-28T02:58:03.561Z,11.87
2022-09-28T03:00:37.276Z,11.37
2022-09-28T03:03:35.867Z,14.40
2022-09-28T03:06:14.874Z,10.63
2022-09-28T03:09:07.856Z,10.93
2022-09-28T03:11:41.862Z,17.43
2022-09-28T03:14:11.235Z,12.87
2022-09-28T03:16:38.012Z,13.80
2022-09-28T03:19:04.783Z,10.90
2022-09-28T03:21:32.588Z,14.20
2022-09-28T03:23:59.285Z,16.40
2022-09-28T03:26:26.036Z,12.67
2022-09-28T03:28:52.766Z,11.10
2022-09-28T03:31:19.605Z,15.80
2022-09-28T03:33:46.541Z,13.37
2022-09-28T03:36:15.079Z,12.10
2022-09-28T03:38:41.868Z,16.47
2022-09-28T03:41:09.562Z,13.23
2022-09-28T03:43:36.294Z,12.90
2022-09-28T03:46:03.616Z,10.77
2022-09-28T03:48:33.406Z,11.33
2022-09-28T03:51:02.896Z,16.23
2022-09-28T03:53:30.179Z,14.17
2022-09-28T03:56:03.422Z,12.20
2022-09-28T03:58:30.562Z,13.60
2022-09-28T04:01:02.385Z,16.73
2022-09-28T04:03:29.176Z,19.87
2022-09-28T04:05:55.968Z,11.63
2022-09-28T04:08:22.718Z,14.37
2022-09-28T04:10:49.652Z,13.30
2022-09-28T04:13:16.662Z,16.17
2022-09-28T04:15:51.810Z,12.77
2022-09-28T04:18:18.536Z,17.53
2022-09-28T04:20:48.000Z,17.17
2022-09-28T04:23:15.860Z,16.47
2022-09-28T04:25:46.030Z,12.73
2022-09-28T04:28:31.545Z,22.43
2022-09-28T04:30:58.412Z,16.27
2022-09-28T04:33:25.144Z,13.57
2022-09-28T04:35:51.895Z,15.37
2022-09-28T04:38:30.822Z,13.87
2022-09-28T04:41:06.113Z,11.50
2022-09-28T04:43:33.368Z,12.93
2022-09-28T04:46:05.740Z,17.43
2022-09-28T04:48:32.665Z,15.83
2022-09-28T04:51:00.566Z,16.20
2022-09-28T04:53:28.262Z,13.93
2022-09-28T04:56:07.030Z,13.80
2022-09-28T04:58:35.772Z,17.50
2022-09-28T05:01:06.820Z,14.70
2022-09-28T05:03:34.284Z,16.10
2022-09-28T05:06:01.578Z,14.13
2022-09-28T05:08:29.146Z,13.60
2022-09-28T05:11:05.261Z,14.40
2022-09-28T05:13:33.484Z,12.30
2022-09-28T05:16:04.947Z,14.23
2022-09-28T05:18:32.859Z,15.30
2022-09-28T05:20:59.829Z,17.43
2022-09-28T05:23:26.678Z,16.83
2022-09-28T05:25:53.481Z,12.53
2022-09-28T05:28:25.295Z,14.30
2022-09-28T05:30:52.466Z,13.07
2022-09-28T05:33:19.232Z,16.53
2022-09-28T05:35:49.772Z,12.23
2022-09-28T05:38:19.302Z,14.47
2022-09-28T05:40:47.294Z,13.40
2022-09-28T05:43:14.173Z,19.50
2022-09-28T05:45:41.158Z,14.33
2022-09-28T05:48:08.251Z,14.07
2022-09-28T05:50:36.468Z,14.80
2022-09-28T05:53:10.312Z,17.80
2022-09-28T05:55:38.243Z,14.17
2022-09-28T05:58:06.638Z,16.87
2022-09-28T06:00:34.558Z,20.93
2022-09-28T06:03:08.996Z,23.33
2022-09-28T06:05:38.300Z,15.47
2022-09-28T06:08:08.454Z,19.27
2022-09-28T06:10:35.290Z,23.93
2022-09-28T06:13:02.277Z,23.30
2022-09-28T06:15:31.114Z,26.83
2022-09-28T06:18:02.727Z,25.80
2022-09-28T06:20:32.577Z,21.60
2022-09-28T06:22:59.338Z,23.00
2022-09-28T06:25:27.678Z,19.33
2022-09-28T06:27:59.614Z,20.17
2022-09-28T06:30:28.427Z,25.27
2022-09-28T06:32:57.235Z,20.57
2022-09-28T06:35:26.071Z,22.60
2022-09-28T06:37:53.659Z,21.67
2022-09-28T06:40:21.292Z,21.33
2022-09-28T06:42:58.346Z,15.13
2022-09-28T06:45:26.158Z,18.57
2022-09-28T06:47:55.197Z,16.47
2022-09-28T06:50:24.146Z,16.07
2022-09-28T06:52:54.512Z,21.07
2022-09-28T06:55:23.546Z,15.80
2022-09-28T06:58:11.799Z,18.73
2022-09-28T07:00:39.735Z,18.00
2022-09-28T07:03:22.393Z,17.97
2022-09-28T07:05:54.082Z,17.93
2022-09-28T07:08:26.664Z,16.37
2022-09-28T07:10:56.231Z,14.63
2022-09-28T07:13:50.230Z,16.27
2022-09-28T07:16:19.714Z,17.60
2022-09-28T07:18:55.383Z,14.30
2022-09-28T07:21:29.548Z,17.23
2022-09-28T07:23:58.723Z,18.00
2022-09-28T07:26:30.314Z,15.20
2022-09-28T07:28:57.271Z,13.03
2022-09-28T07:31:25.630Z,12.13
2022-09-28T07:33:54.063Z,15.90
2022-09-28T07:36:21.006Z,13.97
2022-09-28T07:38:48.054Z,14.90
2022-09-28T07:41:17.260Z,15.17
2022-09-28T07:43:44.080Z,13.20
2022-09-28T07:46:13.777Z,13.73
2022-09-28T07:48:42.787Z,14.27
2022-09-28T07:51:10.424Z,18.70
2022-09-28T07:53:38.646Z,14.67
2022-09-28T07:56:09.453Z,14.30
2022-09-28T07:58:38.368Z,11.47
2022-09-28T08:01:14.972Z,13.87
2022-09-28T08:03:45.100Z,9.70
2022-09-28T08:06:13.246Z,10.97
2022-09-28T08:08:44.772Z,12.67
2022-09-28T08:11:16.828Z,14.23
2022-09-28T08:13:45.580Z,12.33
2022-09-28T08:16:12.611Z,12.30
2022-09-28T08:18:39.607Z,13.63
2022-09-28T08:21:25.399Z,10.83
2022-09-28T08:23:52.937Z,9.77
2022-09-28T08:26:19.948Z,13.53
2022-09-28T08:28:47.865Z,10.67
2022-09-28T08:31:14.938Z,8.83
2022-09-28T08:33:44.418Z,12.20
2022-09-28T08:36:11.496Z,9.63
2022-09-28T08:38:38.213Z,8.77
2022-09-28T08:41:23.809Z,10.90
2022-09-28T08:44:00.227Z,8.90
2022-09-28T08:46:33.687Z,9.30
2022-09-28T08:49:26.714Z,9.63
2022-09-28T08:52:13.528Z,11.30
2022-09-28T08:55:00.571Z,8.10
2022-09-28T08:58:18.707Z,8.77
2022-09-28T09:00:48.671Z,7.37
2022-09-28T09:03:28.955Z,7.80
2022-09-28T09:06:28.914Z,8.17
2022-09-28T09:09:14.521Z,8.07
2022-09-28T09:11:57.295Z,6.37
2022-09-28T09:15:13.975Z,8.93
2022-09-28T09:18:07.749Z,8.03
2022-09-28T09:20:49.789Z,7.10
2022-09-28T09:23:39.239Z,5.30
2022-09-28T09:26:23.501Z,6.43
2022-09-28T09:29:02.183Z,6.27
2022-09-28T09:31:55.465Z,5.63
2022-09-28T09:34:49.865Z,4.60
2022-09-28T09:37:58.562Z,6.07
2022-09-28T09:40:46.848Z,3.83
2022-09-28T09:43:51.038Z,6.40
2022-09-28T09:46:28.059Z,5.13
2022-09-28T09:49:21.056Z,5.80
2022-09-28T09:52:21.819Z,5.13
2022-09-28T09:54:55.534Z,4.43
2022-09-28T09:57:30.804Z,5.40
2022-09-28T10:00:00.622Z,6.17
2022-09-28T10:02:29.678Z,4.03
2022-09-28T10:05:02.652Z,6.33
2022-09-28T10:07:54.347Z,6.10
2022-09-28T10:10:33.286Z,4.87
2022-09-28T10:13:01.113Z,4.13
2022-09-28T10:15:30.365Z,6.33
2022-09-28T10:18:01.464Z,4.63
2022-09-28T10:20:32.209Z,3.90
2022-09-28T10:23:02.252Z,4.27
2022-09-28T10:25:33.604Z,8.30
2022-09-28T10:28:03.034Z,5.70
2022-09-28T10:30:34.595Z,5.23
2022-09-28T10:33:01.659Z,4.33
2022-09-28T10:35:39.327Z,4.57
2022-09-28T10:38:13.691Z,4.53
2022-09-28T10:40:44.824Z,5.97
2022-09-28T10:43:23.500Z,4.60
2022-09-28T10:46:00.585Z,3.73
2022-09-28T10:48:31.202Z,7.30
2022-09-28T10:51:05.617Z,5.57
2022-09-28T10:53:33.487Z,5.33
2022-09-28T10:56:04.866Z,5.27
2022-09-28T10:58:42.007Z,6.13
2022-09-28T11:01:22.675Z,5.60
2022-09-28T11:03:55.910Z,4.73
2022-09-28T11:06:28.871Z,4.53
2022-09-28T11:09:01.741Z,4.00
2022-09-28T11:11:29.640Z,3.67
2022-09-28T11:14:01.229Z,6.30
2022-09-28T11:16:33.909Z,3.10
2022-09-28T11:19:30.046Z,5.03
2022-09-28T11:21:56.854Z,4.27
2022-09-28T11:24:25.978Z,4.53
2022-09-28T11:27:05.030Z,1.73
2022-09-28T11:29:37.455Z,1.80
2022-09-28T11:32:06.444Z,0.87
2022-09-28T11:34:58.539Z,1.77
2022-09-28T11:38:00.457Z,1.97
2022-09-28T11:40:45.917Z,3.53
2022-09-28T11:43:38.929Z,4.63
2022-09-28T11:46:42.629Z,3.03
2022-09-28T11:49:15.552Z,3.67
2022-09-28T11:51:45.789Z,2.43
2022-09-28T11:54:26.134Z,3.03
2022-09-28T11:56:53.776Z,1.77
2022-09-28T11:59:29.812Z,2.57
2022-09-28T12:02:02.239Z,2.27
2022-09-28T12:04:41.118Z,6.90
2022-09-28T12:07:23.303Z,0.97
2022-09-28T12:10:11.694Z,1.67
2022-09-28T12:13:00.061Z,2.93
2022-09-28T12:16:20.024Z,2.60
2022-09-28T12:18:52.897Z,3.73
2022-09-28T12:21:30.677Z,2.37
2022-09-28T12:24:21.860Z,1.13
2022-09-28T12:27:07.594Z,0.80
2022-09-28T12:29:41.283Z,2.60
2022-09-28T12:32:35.735Z,3.33
2022-09-28T12:35:09.954Z,2.33
2022-09-28T12:37:40.281Z,4.43
2022-09-28T12:40:34.368Z,2.67
2022-09-28T12:43:10.322Z,1.70
2022-09-28T12:46:13.962Z,1.60
2022-09-28T12:49:21.686Z,1.70
2022-09-28T12:51:55.552Z,4.23
2022-09-28T12:54:34.420Z,2.10
2022-09-28T12:57:13.851Z,2.27
2022-09-28T13:00:06.158Z,4.17
2022-09-28T13:02:59.773Z,2.00
2022-09-28T13:05:57.620Z,2.57
2022-09-28T13:09:01.667Z,5.63
2022-09-28T13:11:36.131Z,3.13
2022-09-28T13:14:30.571Z,4.70
2022-09-28T13:17:04.023Z,5.23
2022-09-28T13:19:42.551Z,3.00
2022-09-28T13:22:21.210Z,4.10
2022-09-28T13:24:50.500Z,2.93
2022-09-28T13:27:35.031Z,2.83
2022-09-28T13:30:06.409Z,5.50
2022-09-28T13:32:35.908Z,4.07
2022-09-28T13:35:03.159Z,3.70
2022-09-28T13:37:29.918Z,4.37
2022-09-28T13:40:05.841Z,4.67
2022-09-28T13:42:44.971Z,3.63
2022-09-28T13:45:20.833Z,3.17
2022-09-28T13:48:17.365Z,3.03
2022-09-28T13:50:56.346Z,3.20
2022-09-28T13:53:39.593Z,1.27
2022-09-28T13:56:18.644Z,2.63
2022-09-28T13:58:51.645Z,2.63
2022-09-28T14:01:39.871Z,5.43
2022-09-28T14:04:24.924Z,4.37
2022-09-28T14:06:57.557Z,6.10
2022-09-28T14:10:01.959Z,3.70
2022-09-28T14:12:30.712Z,3.37
2022-09-28T14:14:57.567Z,2.10
2022-09-28T14:17:47.360Z,2.47
2022-09-28T14:20:16.631Z,2.60
2022-09-28T14:23:01.377Z,4.40
2022-09-28T14:25:31.777Z,2.80
2022-09-28T14:28:16.873Z,5.63
2022-09-28T14:30:43.630Z,2.80
2022-09-28T14:33:22.533Z,2.73
2022-09-28T14:35:56.439Z,2.47
2022-09-28T14:39:09.547Z,2.67
2022-09-28T14:41:40.263Z,3.63
2022-09-28T14:44:09.822Z,3.13
2022-09-28T14:46:49.091Z,4.23
2022-09-28T14:49:19.725Z,2.90
2022-09-28T14:51:58.551Z,1.93
2022-09-28T14:54:46.911Z,5.27
2022-09-28T14:57:19.924Z,3.37
2022-09-28T14:59:47.995Z,3.00
2022-09-28T15:02:25.456Z,2.17
2022-09-28T15:05:15.819Z,6.13
2022-09-28T15:07:49.584Z,2.33
2022-09-28T15:10:27.729Z,1.07
2022-09-28T15:12:57.165Z,2.13
2022-09-28T15:15:39.017Z,3.63
2022-09-28T15:18:30.090Z,1.80
2022-09-28T15:20:58.173Z,2.40
2022-09-28T15:23:37.613Z,2.90
2022-09-28T15:26:08.853Z,1.47
2022-09-28T15:28:43.524Z,1.80
2022-09-28T15:31:18.400Z,2.70
2022-09-28T15:34:03.942Z,2.70
2022-09-28T15:36:42.337Z,1.30
2022-09-28T15:39:24.312Z,1.80
2022-09-28T15:41:51.601Z,1.67
2022-09-28T15:44:35.277Z,1.17
2022-09-28T15:47:07.844Z,2.40
2022-09-28T15:49:53.235Z,1.33
2022-09-28T15:52:44.548Z,2.23
2022-09-28T15:55:39.106Z,5.00
2022-09-28T15:58:18.322Z,2.20
2022-09-28T16:00:50.487Z,2.10
2022-09-28T16:03:17.300Z,3.47
2022-09-28T16:05:49.805Z,1.07
2022-09-28T16:08:24.853Z,1.47
2022-09-28T16:11:13.351Z,2.10
2022-09-28T16:13:55.171Z,1.50
2022-09-28T16:16:30.076Z,1.97
2022-09-28T16:19:00.596Z,3.33
2022-09-28T16:21:46.004Z,1.40
2022-09-28T16:24:29.059Z,2.07
2022-09-28T16:26:59.696Z,2.43
2022-09-28T16:29:41.285Z,2.77
2022-09-28T16:32:26.302Z,2.93
2022-09-28T16:35:21.152Z,2.20
2022-09-28T16:38:14.719Z,2.20
2022-09-28T16:40:49.698Z,2.23
2022-09-28T16:43:27.014Z,4.57
2022-09-28T16:45:58.047Z,3.00
2022-09-28T16:48:31.372Z,4.10
2022-09-28T16:50:59.014Z,2.03
2022-09-28T16:53:45.236Z,1.20
2022-09-28T16:56:12.953Z,3.00
2022-09-28T16:58:42.755Z,1.60
2022-09-28T17:01:12.033Z,1.77
2022-09-28T17:03:42.256Z,2.17
2022-09-28T17:06:11.936Z,4.70
2022-09-28T17:08:38.802Z,3.33
2022-09-28T17:11:17.748Z,2.60
2022-09-28T17:13:48.805Z,2.43
2022-09-28T17:16:17.941Z,3.43
2022-09-28T17:18:46.003Z,2.60
2022-09-28T17:21:20.680Z,3.73
2022-09-28T17:23:49.020Z,2.30
2022-09-28T17:26:31.793Z,1.13
2022-09-28T17:28:59.441Z,2.37
2022-09-28T17:31:26.639Z,2.10
2022-09-28T17:33:54.499Z,2.03
2022-09-28T17:36:22.245Z,1.40
2022-09-28T17:38:51.793Z,2.57
2022-09-28T17:41:20.957Z,4.23
2022-09-28T17:43:48.846Z,2.00
2022-09-28T17:46:30.755Z,3.07
2022-09-28T17:49:02.066Z,3.27
2022-09-28T17:51:34.711Z,2.73
2022-09-28T17:54:02.026Z,3.83
2022-09-28T17:56:32.272Z,4.97
2022-09-28T17:59:05.492Z,3.47
2022-09-28T18:01:35.978Z,1.27
2022-09-28T18:04:08.104Z,2.83
2022-09-28T18:06:37.060Z,4.23
2022-09-28T18:09:04.821Z,2.27
2022-09-28T18:11:32.844Z,1.87
2022-09-28T18:13:59.661Z,2.70
2022-09-28T18:16:28.738Z,3.07
2022-09-28T18:18:56.148Z,2.53
2022-09-28T18:21:22.939Z,5.03
2022-09-28T18:23:49.683Z,4.40
2022-09-28T18:26:19.470Z,3.40
2022-09-28T18:28:46.535Z,4.57
2022-09-28T18:31:15.641Z,2.27
2022-09-28T18:33:43.317Z,3.23
2022-09-28T18:36:11.240Z,3.47
2022-09-28T18:38:38.697Z,2.63
2022-09-28T18:41:16.856Z,4.50
2022-09-28T18:43:49.671Z,2.67
2022-09-28T18:46:20.412Z,2.40
2022-09-28T18:48:47.754Z,4.93
2022-09-28T18:51:14.641Z,5.73
2022-09-28T18:53:41.473Z,5.33
2022-09-28T18:56:14.791Z,4.87
2022-09-28T18:58:42.802Z,5.10
2022-09-28T19:01:29.810Z,3.70
2022-09-28T19:04:02.006Z,5.00
2022-09-28T19:06:29.920Z,5.43
2022-09-28T19:08:57.432Z,4.27
2022-09-28T19:11:25.864Z,5.43
2022-09-28T19:13:54.752Z,5.87
2022-09-28T19:16:29.367Z,5.13
2022-09-28T19:18:57.971Z,5.87
2022-09-28T19:21:25.522Z,6.77
2022-09-28T19:23:55.078Z,4.93
2022-09-28T19:26:25.073Z,4.80
2022-09-28T19:28:52.039Z,4.37
2022-09-28T19:31:20.725Z,6.07
2022-09-28T19:33:48.201Z,4.43
2022-09-28T19:36:21.218Z,4.90
2022-09-28T19:38:48.355Z,5.30
2022-09-28T19:41:43.158Z,3.63
2022-09-28T19:44:24.889Z,6.97
2022-09-28T19:46:54.670Z,4.73
2022-09-28T19:49:23.329Z,3.70
2022-09-28T19:52:12.258Z,3.70
2022-09-28T19:54:40.049Z,3.90
2022-09-28T19:57:11.516Z,4.30
2022-09-28T19:59:38.774Z,4.63
2022-09-28T20:02:07.335Z,4.40
2022-09-28T20:04:34.363Z,5.20
2022-09-28T20:07:01.853Z,5.53
2022-09-28T20:09:28.842Z,5.10
2022-09-28T20:11:55.803Z,4.40
2022-09-28T20:14:24.577Z,6.20
2022-09-28T20:16:53.282Z,5.73
2022-09-28T20:19:21.789Z,4.73
2022-09-28T20:21:49.633Z,6.03
2022-09-28T20:24:17.696Z,4.93
2022-09-28T20:26:46.050Z,5.40
2022-09-28T20:29:13.342Z,4.83
2022-09-28T20:31:40.522Z,5.20
2022-09-28T20:34:12.263Z,5.97
2022-09-28T20:36:42.327Z,5.53
2022-09-28T20:39:11.139Z,4.97
2022-09-28T20:41:37.885Z,3.47
2022-09-28T20:44:06.912Z,6.17
2022-09-28T20:46:38.323Z,5.23
2022-09-28T20:49:07.210Z,6.23
2022-09-28T20:51:34.222Z,5.80
2022-09-28T20:54:01.048Z,5.13
2022-09-28T20:56:39.073Z,4.23
2022-09-28T20:59:11.388Z,4.80
2022-09-28T21:01:38.466Z,4.73
2022-09-28T21:04:06.631Z,5.93
2022-09-28T21:06:35.579Z,4.23
2022-09-28T21:09:03.495Z,4.17
2022-09-28T21:11:30.558Z,4.33
2022-09-28T21:13:59.840Z,4.23
2022-09-28T21:16:29.444Z,7.23
2022-09-28T21:18:56.649Z,5.67
2022-09-28T21:21:24.615Z,3.97
2022-09-28T21:23:58.334Z,4.53
2022-09-28T21:26:27.279Z,4.57
2022-09-28T21:28:59.607Z,4.63
2022-09-28T21:31:29.974Z,3.77
2022-09-28T21:33:57.905Z,5.40
2022-09-28T21:36:25.610Z,3.87
2022-09-28T21:38:53.487Z,4.20
2022-09-28T21:41:20.248Z,4.60
2022-09-28T21:43:47.069Z,4.20
2022-09-28T21:46:13.917Z,6.27
2022-09-28T21:48:41.008Z,5.23
2022-09-28T21:51:10.864Z,4.63
2022-09-28T21:53:38.324Z,3.70
2022-09-28T21:56:08.108Z,5.13
2022-09-28T21:58:36.500Z,4.03
2022-09-28T22:01:15.449Z,5.33
2022-09-28T22:03:47.454Z,4.77
2022-09-28T22:06:17.048Z,5.93
2022-09-28T22:08:44.382Z,4.43
2022-09-28T22:11:22.703Z,6.57
2022-09-28T22:13:52.117Z,5.23
2022-09-28T22:16:20.793Z,4.50
2022-09-28T22:18:48.092Z,4.43
2022-09-28T22:21:27.139Z,4.23
2022-09-28T22:23:54.309Z,5.10
2022-09-28T22:26:25.794Z,4.93
2022-09-28T22:28:54.984Z,5.67
2022-09-28T22:31:28.191Z,4.83
2022-09-28T22:33:55.455Z,5.03
2022-09-28T22:36:22.910Z,4.33
2022-09-28T22:38:50.279Z,4.50
2022-09-28T22:41:20.680Z,5.47
2022-09-28T22:43:48.280Z,7.00
2022-09-28T22:46:21.133Z,5.27
2022-09-28T22:48:53.792Z,8.40
2022-09-28T22:51:21.521Z,4.77
2022-09-28T22:53:48.356Z,5.03
2022-09-28T22:56:18.722Z,4.60
2022-09-28T22:58:46.807Z,6.30
2022-09-28T23:01:22.453Z,5.37
2022-09-28T23:03:50.820Z,5.40
2022-09-28T23:06:20.219Z,5.43
2022-09-28T23:08:48.523Z,5.23
2022-09-28T23:11:15.913Z,4.50
2022-09-28T23:13:43.430Z,4.80
2022-09-28T23:16:14.903Z,4.70
2022-09-28T23:18:42.191Z,5.83
2022-09-28T23:21:17.610Z,4.97
2022-09-28T23:23:45.299Z,5.23
2022-09-28T23:26:19.209Z,4.23
2022-09-28T23:28:46.660Z,5.33
2022-09-28T23:31:34.836Z,4.60
2022-09-28T23:34:05.040Z,5.40
2022-09-28T23:36:32.513Z,5.07
2022-09-28T23:38:59.327Z,5.30
2022-09-28T23:41:26.485Z,5.13
2022-09-28T23:43:53.240Z,4.90
2022-09-28T23:46:21.509Z,5.50
2022-09-28T23:48:49.193Z,7.13
2022-09-28T23:51:15.981Z,5.77
2022-09-28T23:53:43.359Z,4.03
2022-09-28T23:56:10.309Z,5.17
2022-09-28T23:58:37.194Z,6.47
